createdAt,value
2018-10-19T00:01:12.891Z,14.30
2018-10-19T00:03:41.034Z,14.20
2018-10-19T00:06:09.150Z,14.20
2018-10-19T00:08:37.305Z,14.20
2018-10-19T00:11:05.536Z,14.20
2018-10-19T00:13:33.704Z,14.20
2018-10-19T00:16:01.829Z,14.10
2018-10-19T00:18:29.969Z,14.20
2018-10-19T00:20:58.093Z,14.10
2018-10-19T00:23:26.239Z,14.10
2018-10-19T00:25:54.448Z,14.10
2018-10-19T00:28:22.583Z,14.20
2018-10-19T00:30:50.723Z,14.20
2018-10-19T00:33:18.859Z,14.20
2018-10-19T00:35:46.976Z,14.20
2018-10-19T00:38:15.096Z,14.10
2018-10-19T00:40:43.239Z,14.10
2018-10-19T00:43:11.368Z,14.10
2018-10-19T00:45:47.044Z,14.10
2018-10-19T00:48:19.676Z,14.10
2018-10-19T00:50:47.836Z,14.10
2018-10-19T00:53:16.313Z,14.00
2018-10-19T00:55:44.286Z,14.00
2018-10-19T00:58:12.444Z,14.00
2018-10-19T01:00:41.623Z,14.00
2018-10-19T01:03:10.160Z,13.90
2018-10-19T01:05:39.205Z,14.00
2018-10-19T01:08:07.775Z,13.90
2018-10-19T01:10:35.879Z,13.90
2018-10-19T01:13:04.169Z,14.00
2018-10-19T01:15:32.275Z,13.80
2018-10-19T01:18:00.483Z,13.90
2018-10-19T01:20:28.672Z,14.00
2018-10-19T01:23:02.633Z,14.00
2018-10-19T01:25:30.684Z,13.90
2018-10-19T01:27:58.773Z,13.90
2018-10-19T01:30:26.875Z,13.80
2018-10-19T01:32:55.006Z,13.80
2018-10-19T01:35:23.080Z,13.80
2018-10-19T01:37:51.179Z,13.80
2018-10-19T01:40:19.318Z,13.90
2018-10-19T01:42:47.419Z,13.80
2018-10-19T01:45:15.592Z,13.90
2018-10-19T01:47:43.613Z,13.90
2018-10-19T01:50:12.081Z,13.90
2018-10-19T01:52:40.972Z,13.80
2018-10-19T01:55:09.127Z,13.80
2018-10-19T01:57:37.434Z,13.80
2018-10-19T02:00:06.216Z,13.80
2018-10-19T02:02:34.316Z,13.80
2018-10-19T02:05:02.452Z,13.80
2018-10-19T02:07:30.544Z,13.80
2018-10-19T02:09:58.641Z,13.80
2018-10-19T02:12:26.745Z,13.80
2018-10-19T02:14:54.868Z,13.70
2018-10-19T02:17:22.995Z,13.70
2018-10-19T02:19:51.107Z,13.70
2018-10-19T02:22:19.234Z,13.70
2018-10-19T02:24:47.337Z,13.70
2018-10-19T02:27:15.534Z,13.70
2018-10-19T02:29:43.534Z,13.70
2018-10-19T02:32:11.647Z,13.70
2018-10-19T02:34:39.740Z,13.60
2018-10-19T02:37:08.227Z,13.60
2018-10-19T02:39:36.329Z,13.60
2018-10-19T02:42:04.725Z,13.60
2018-10-19T02:44:32.804Z,13.60
2018-10-19T02:47:00.921Z,13.50
2018-10-19T02:49:29.009Z,13.50
2018-10-19T02:51:57.120Z,13.50
2018-10-19T02:54:25.235Z,13.50
2018-10-19T02:56:53.368Z,13.50
2018-10-19T02:59:21.449Z,13.50
2018-10-19T03:01:49.542Z,13.50
2018-10-19T03:04:17.648Z,13.40
2018-10-19T03:06:45.814Z,13.40
2018-10-19T03:09:13.992Z,13.40
2018-10-19T03:11:42.126Z,13.40
2018-10-19T03:14:10.160Z,13.40
2018-10-19T03:16:38.259Z,13.30
2018-10-19T03:19:06.365Z,13.30
2018-10-19T03:21:34.457Z,13.30
2018-10-19T03:24:02.571Z,13.30
2018-10-19T03:26:30.658Z,13.30
2018-10-19T03:28:58.810Z,13.30
2018-10-19T03:31:26.861Z,13.30
2018-10-19T03:33:54.972Z,13.20
2018-10-19T03:36:29.643Z,13.20
2018-10-19T03:38:57.815Z,13.30
2018-10-19T03:41:25.874Z,13.20
2018-10-19T03:43:53.980Z,13.20
2018-10-19T03:46:22.092Z,13.20
2018-10-19T03:48:50.184Z,13.20
2018-10-19T03:51:18.339Z,13.30
2018-10-19T03:53:46.396Z,13.20
2018-10-19T03:56:14.504Z,13.20
2018-10-19T03:58:42.637Z,13.20
2018-10-19T04:01:10.734Z,13.20
2018-10-19T04:03:38.928Z,13.10
2018-10-19T04:06:06.956Z,13.10
2018-10-19T04:08:35.064Z,13.10
2018-10-19T04:11:03.259Z,13.00
2018-10-19T04:13:31.286Z,13.00
2018-10-19T04:15:59.392Z,13.00
2018-10-19T04:18:27.518Z,13.00
2018-10-19T04:20:55.718Z,12.90
2018-10-19T04:23:23.754Z,12.90
2018-10-19T04:25:51.867Z,12.80
2018-10-19T04:28:19.960Z,12.90
2018-10-19T04:30:48.060Z,12.90
2018-10-19T04:33:16.241Z,12.80
2018-10-19T04:35:44.253Z,12.80
2018-10-19T04:38:12.349Z,12.80
2018-10-19T04:40:40.474Z,12.80
2018-10-19T04:43:08.579Z,12.70
2018-10-19T04:45:36.675Z,12.50
2018-10-19T04:48:05.147Z,12.50
2018-10-19T04:50:33.250Z,12.50
2018-10-19T04:53:01.394Z,12.60
2018-10-19T04:55:29.456Z,12.60
2018-10-19T04:57:57.535Z,12.70
2018-10-19T05:00:25.636Z,12.70
2018-10-19T05:02:53.805Z,12.60
2018-10-19T05:05:21.975Z,12.60
2018-10-19T05:07:49.994Z,12.60
2018-10-19T05:10:18.097Z,12.60
2018-10-19T05:12:46.211Z,12.70
2018-10-19T05:15:14.303Z,12.70
2018-10-19T05:17:42.392Z,12.70
2018-10-19T05:20:12.208Z,12.70
2018-10-19T05:22:40.233Z,12.70
2018-10-19T05:25:10.283Z,12.70
2018-10-19T05:27:38.552Z,12.70
2018-10-19T05:30:08.471Z,12.70
2018-10-19T05:32:36.560Z,12.70
2018-10-19T05:35:05.829Z,12.70
2018-10-19T05:37:33.893Z,12.70
2018-10-19T05:40:02.187Z,12.70
2018-10-19T05:42:30.576Z,12.70
2018-10-19T05:44:58.668Z,12.60
2018-10-19T05:47:26.807Z,12.70
2018-10-19T05:49:54.922Z,12.70
2018-10-19T05:52:23.116Z,12.60
2018-10-19T05:54:51.207Z,12.50
2018-10-19T05:57:19.317Z,12.50
2018-10-19T05:59:47.399Z,12.50
2018-10-19T06:02:15.545Z,12.40
2018-10-19T06:04:43.597Z,12.40
2018-10-19T06:07:11.700Z,12.50
2018-10-19T06:09:39.804Z,12.50
2018-10-19T06:12:08.044Z,12.50
2018-10-19T06:14:36.152Z,12.50
2018-10-19T06:17:04.580Z,12.50
2018-10-19T06:19:32.672Z,12.50
2018-10-19T06:22:00.772Z,12.50
2018-10-19T06:24:28.865Z,12.50
2018-10-19T06:26:56.967Z,12.50
2018-10-19T06:29:25.064Z,12.50
2018-10-19T06:31:53.178Z,12.50
2018-10-19T06:34:21.274Z,12.50
2018-10-19T06:36:49.402Z,12.50
2018-10-19T06:39:17.535Z,12.50
2018-10-19T06:41:45.635Z,12.50
2018-10-19T06:44:13.834Z,12.50
2018-10-19T06:46:41.905Z,12.50
2018-10-19T06:49:09.976Z,12.50
2018-10-19T06:51:38.071Z,12.50
2018-10-19T06:54:06.266Z,12.50
2018-10-19T06:56:34.392Z,12.60
2018-10-19T06:59:02.578Z,12.70
2018-10-19T07:01:30.651Z,12.70
2018-10-19T07:03:58.751Z,12.70
2018-10-19T07:06:26.860Z,12.60
2018-10-19T07:08:54.976Z,12.70
2018-10-19T07:11:23.068Z,12.70
2018-10-19T07:13:51.171Z,12.70
2018-10-19T07:16:19.259Z,12.70
2018-10-19T07:18:47.375Z,12.70
2018-10-19T07:21:15.464Z,12.70
2018-10-19T07:23:43.568Z,12.80
2018-10-19T07:26:11.736Z,12.80
2018-10-19T07:28:39.787Z,12.90
2018-10-19T07:31:07.893Z,12.90
2018-10-19T07:33:35.991Z,12.90
2018-10-19T07:36:04.152Z,13.00
2018-10-19T07:38:32.274Z,13.00
2018-10-19T07:41:00.398Z,13.00
2018-10-19T07:43:28.476Z,13.00
2018-10-19T07:45:56.593Z,12.90
2018-10-19T07:48:24.776Z,12.90
2018-10-19T07:50:52.827Z,12.90
2018-10-19T07:53:20.925Z,12.80
2018-10-19T07:55:49.028Z,12.70
2018-10-19T07:58:17.140Z,12.80
2018-10-19T08:00:45.251Z,12.80
2018-10-19T08:03:13.336Z,12.90
2018-10-19T08:05:41.425Z,12.90
2018-10-19T08:08:09.599Z,12.80
2018-10-19T08:10:37.654Z,12.80
2018-10-19T08:13:05.776Z,12.80
2018-10-19T08:15:33.884Z,12.80
2018-10-19T08:18:02.038Z,12.90
2018-10-19T08:20:30.141Z,13.00
2018-10-19T08:22:58.509Z,13.00
2018-10-19T08:25:26.663Z,13.00
2018-10-19T08:27:54.755Z,13.10
2018-10-19T08:30:22.880Z,13.20
2018-10-19T08:32:50.981Z,13.20
2018-10-19T08:35:19.072Z,13.20
2018-10-19T08:37:47.189Z,13.20
2018-10-19T08:40:15.288Z,13.30
2018-10-19T08:42:43.387Z,13.40
2018-10-19T08:45:11.527Z,13.40
2018-10-19T08:47:39.641Z,13.40
2018-10-19T08:50:07.988Z,13.40
2018-10-19T08:52:36.197Z,13.40
2018-10-19T08:55:04.448Z,13.40
2018-10-19T08:57:32.429Z,13.40
2018-10-19T09:00:00.572Z,13.30
2018-10-19T09:02:28.619Z,13.30
2018-10-19T09:04:56.736Z,13.40
2018-10-19T09:07:24.820Z,13.20
2018-10-19T09:09:52.912Z,13.20
2018-10-19T09:12:21.020Z,13.20
2018-10-19T09:14:56.475Z,13.30
2018-10-19T09:17:24.562Z,13.30
2018-10-19T09:19:53.058Z,13.30
2018-10-19T09:22:21.435Z,13.40
2018-10-19T09:24:49.804Z,13.40
2018-10-19T09:27:17.919Z,13.50
2018-10-19T09:29:46.268Z,13.60
2018-10-19T09:32:14.399Z,13.70
2018-10-19T09:34:42.496Z,13.80
2018-10-19T09:37:11.515Z,13.90
2018-10-19T09:39:39.624Z,13.90
2018-10-19T09:42:08.211Z,13.90
2018-10-19T09:44:36.246Z,14.00
2018-10-19T09:47:04.783Z,14.00
2018-10-19T09:49:32.868Z,14.00
2018-10-19T09:52:00.954Z,14.10
2018-10-19T09:54:29.047Z,14.10
2018-10-19T09:56:57.168Z,14.20
2018-10-19T09:59:25.248Z,14.30
2018-10-19T10:01:53.363Z,14.40
2018-10-19T10:04:21.437Z,14.40
2018-10-19T10:06:49.519Z,14.50
2018-10-19T10:09:17.953Z,14.70
2018-10-19T10:11:46.044Z,14.90
2018-10-19T10:14:14.137Z,14.90
2018-10-19T10:16:42.232Z,14.90
2018-10-19T10:19:10.391Z,15.20
2018-10-19T10:21:38.427Z,15.30
2018-10-19T10:24:06.733Z,15.30
2018-10-19T10:26:34.876Z,15.30
2018-10-19T10:29:03.104Z,15.50
2018-10-19T10:31:31.210Z,15.50
2018-10-19T10:33:59.345Z,15.70
2018-10-19T10:36:29.231Z,15.80
2018-10-19T10:38:57.522Z,15.70
2018-10-19T10:41:25.572Z,15.70
2018-10-19T10:43:53.677Z,15.80
2018-10-19T10:46:21.791Z,16.00
2018-10-19T10:48:49.872Z,16.20
2018-10-19T10:51:17.971Z,16.20
2018-10-19T10:53:46.051Z,16.40
2018-10-19T10:56:14.180Z,16.50
2018-10-19T10:58:42.279Z,16.50
2018-10-19T11:01:10.448Z,16.60
2018-10-19T11:03:38.579Z,16.70
2018-10-19T11:06:06.688Z,16.50
2018-10-19T11:08:34.792Z,16.40
2018-10-19T11:11:11.703Z,16.50
2018-10-19T11:13:40.685Z,16.60
2018-10-19T11:16:09.820Z,16.70
2018-10-19T11:18:38.373Z,16.90
2018-10-19T11:21:06.753Z,16.90
2018-10-19T11:23:34.960Z,16.90
2018-10-19T11:26:03.404Z,17.00
2018-10-19T11:28:31.683Z,17.00
2018-10-19T11:30:59.983Z,16.90
2018-10-19T11:33:28.115Z,16.80
2018-10-19T11:35:56.233Z,16.80
2018-10-19T11:38:24.444Z,16.80
2018-10-19T11:40:52.552Z,16.60
2018-10-19T11:43:20.660Z,16.60
2018-10-19T11:45:48.906Z,16.70
2018-10-19T11:48:17.101Z,16.80
2018-10-19T11:50:45.206Z,16.90
2018-10-19T11:53:13.320Z,16.90
2018-10-19T11:55:41.433Z,16.90
2018-10-19T11:58:09.637Z,16.70
2018-10-19T12:00:37.634Z,16.70
2018-10-19T12:03:05.744Z,16.80
2018-10-19T12:05:33.829Z,16.90
2018-10-19T12:08:02.032Z,16.90
2018-10-19T12:10:30.184Z,16.90
2018-10-19T12:12:58.281Z,16.90
2018-10-19T12:15:26.328Z,16.90
2018-10-19T12:17:54.442Z,16.90
2018-10-19T12:20:22.539Z,17.00
2018-10-19T12:22:50.644Z,17.00
2018-10-19T12:25:18.745Z,17.20
2018-10-19T12:27:46.937Z,17.30
2018-10-19T12:30:15.017Z,17.30
2018-10-19T12:32:43.113Z,17.40
2018-10-19T12:35:12.824Z,17.30
2018-10-19T12:37:40.916Z,17.30
2018-10-19T12:40:09.567Z,17.30
2018-10-19T12:42:38.064Z,17.20
2018-10-19T12:45:11.384Z,17.00
2018-10-19T12:47:41.076Z,16.90
2018-10-19T12:50:09.292Z,16.80
2018-10-19T12:52:37.460Z,16.70
2018-10-19T12:55:07.248Z,16.50
2018-10-19T12:57:35.346Z,16.60
2018-10-19T13:00:03.574Z,16.60
2018-10-19T13:02:31.668Z,16.70
2018-10-19T13:04:59.767Z,16.80
2018-10-19T13:07:27.863Z,16.70
2018-10-19T13:09:55.957Z,16.50
2018-10-19T13:12:24.059Z,16.50
2018-10-19T13:14:52.162Z,16.40
2018-10-19T13:17:20.316Z,16.40
2018-10-19T13:19:48.399Z,16.30
2018-10-19T13:22:16.508Z,16.40
2018-10-19T13:24:44.596Z,16.40
2018-10-19T13:27:12.723Z,16.50
2018-10-19T13:29:40.810Z,16.50
2018-10-19T13:32:08.895Z,16.50
2018-10-19T13:34:36.988Z,16.60
2018-10-19T13:37:05.112Z,16.70
2018-10-19T13:39:33.211Z,16.70
2018-10-19T13:42:01.295Z,16.70
2018-10-19T13:44:29.404Z,16.60
2018-10-19T13:46:57.481Z,16.70
2018-10-19T13:49:25.580Z,16.80
2018-10-19T13:51:53.706Z,16.80
2018-10-19T13:54:21.853Z,16.80
2018-10-19T13:56:49.940Z,16.90
2018-10-19T13:59:18.088Z,16.90
2018-10-19T14:01:46.123Z,16.80
2018-10-19T14:04:14.220Z,16.70
2018-10-19T14:06:42.316Z,16.60
2018-10-19T14:09:10.983Z,16.70
2018-10-19T14:11:39.632Z,16.70
2018-10-19T14:14:07.731Z,16.70
2018-10-19T14:16:35.824Z,16.70
2018-10-19T14:19:03.954Z,16.80
2018-10-19T14:21:32.028Z,16.80
2018-10-19T14:24:00.123Z,16.80
2018-10-19T14:26:28.373Z,16.80
2018-10-19T14:28:56.446Z,16.80
2018-10-19T14:31:24.536Z,16.80
2018-10-19T14:33:53.052Z,16.70
2018-10-19T14:36:21.163Z,16.70
2018-10-19T14:38:49.271Z,16.70
2018-10-19T14:41:17.362Z,16.70
2018-10-19T14:43:45.464Z,16.70
2018-10-19T14:46:13.552Z,16.70
2018-10-19T14:48:41.692Z,16.70
2018-10-19T14:51:09.811Z,16.50
2018-10-19T14:53:37.843Z,16.50
2018-10-19T14:56:05.958Z,16.30
2018-10-19T14:58:34.081Z,16.30
2018-10-19T15:01:02.280Z,16.20
2018-10-19T15:03:30.368Z,16.10
2018-10-19T15:05:58.471Z,16.10
2018-10-19T15:08:26.548Z,16.00
2018-10-19T15:10:54.882Z,16.10
2018-10-19T15:13:22.740Z,16.00
2018-10-19T15:15:50.844Z,16.00
2018-10-19T15:18:18.955Z,16.10
2018-10-19T15:20:47.028Z,16.10
2018-10-19T15:23:15.456Z,16.00
2018-10-19T15:25:43.566Z,16.00
2018-10-19T15:28:11.649Z,16.00
2018-10-19T15:30:39.748Z,16.00
2018-10-19T15:33:07.847Z,15.90
2018-10-19T15:35:36.034Z,15.90
2018-10-19T15:38:04.203Z,15.80
2018-10-19T15:40:32.302Z,15.80
2018-10-19T15:43:00.388Z,15.70
2018-10-19T15:45:28.479Z,15.70
2018-10-19T15:47:56.568Z,15.70
2018-10-19T15:50:24.668Z,15.60
2018-10-19T15:52:52.748Z,15.60
2018-10-19T15:55:20.848Z,15.50
2018-10-19T15:57:48.928Z,15.50
2018-10-19T16:00:17.084Z,15.40
2018-10-19T16:02:45.135Z,15.30
2018-10-19T16:05:13.232Z,15.20
2018-10-19T16:07:41.332Z,15.20
2018-10-19T16:10:09.440Z,15.10
2018-10-19T16:12:37.512Z,15.10
2018-10-19T16:15:07.652Z,15.00
2018-10-19T16:17:35.816Z,14.90
2018-10-19T16:20:04.805Z,14.90
2018-10-19T16:22:32.901Z,14.80
2018-10-19T16:25:01.011Z,14.80
2018-10-19T16:27:29.183Z,14.70
2018-10-19T16:29:57.234Z,14.60
2018-10-19T16:32:25.309Z,14.50
2018-10-19T16:34:53.477Z,14.50
2018-10-19T16:37:21.560Z,14.40
2018-10-19T16:39:49.664Z,14.30
2018-10-19T16:42:18.006Z,14.30
2018-10-19T16:44:45.866Z,14.30
2018-10-19T16:47:13.971Z,14.20
2018-10-19T16:49:42.090Z,14.20
2018-10-19T16:52:10.404Z,14.20
2018-10-19T16:54:38.380Z,14.20
2018-10-19T16:57:06.578Z,14.20
2018-10-19T16:59:34.605Z,14.20
2018-10-19T17:02:02.723Z,14.10
2018-10-19T17:04:30.813Z,14.10
2018-10-19T17:06:58.927Z,14.20
2018-10-19T17:09:27.021Z,14.20
2018-10-19T17:11:55.190Z,14.20
2018-10-19T17:14:23.348Z,14.20
2018-10-19T17:16:51.473Z,14.10
2018-10-19T17:19:19.649Z,14.00
2018-10-19T17:21:47.688Z,13.90
2018-10-19T17:24:15.872Z,13.80
2018-10-19T17:26:43.906Z,13.70
2018-10-19T17:29:12.062Z,13.70
2018-10-19T17:31:40.161Z,13.70
2018-10-19T17:34:08.233Z,13.70
2018-10-19T17:36:36.324Z,13.70
2018-10-19T17:39:07.241Z,13.70
2018-10-19T17:41:35.308Z,13.60
2018-10-19T17:44:03.412Z,13.70
2018-10-19T17:46:31.487Z,13.70
2018-10-19T17:48:59.622Z,13.70
2018-10-19T17:51:27.692Z,13.70
2018-10-19T17:53:55.833Z,13.60
2018-10-19T17:56:23.896Z,13.60
2018-10-19T17:58:52.012Z,13.60
2018-10-19T18:01:20.104Z,13.50
2018-10-19T18:03:48.276Z,13.50
2018-10-19T18:06:16.486Z,13.40
2018-10-19T18:08:44.599Z,13.30
2018-10-19T18:11:13.040Z,13.30
2018-10-19T18:13:41.040Z,13.30
2018-10-19T18:16:09.192Z,13.30
2018-10-19T18:18:37.271Z,13.30
2018-10-19T18:21:05.693Z,13.30
2018-10-19T18:23:33.802Z,13.20
2018-10-19T18:26:01.931Z,13.20
2018-10-19T18:28:31.569Z,13.30
2018-10-19T18:30:59.702Z,13.20
2018-10-19T18:33:27.757Z,13.20
2018-10-19T18:35:55.895Z,13.10
2018-10-19T18:38:24.021Z,13.10
2018-10-19T18:40:52.139Z,13.10
2018-10-19T18:43:20.252Z,13.10
2018-10-19T18:45:48.380Z,13.00
2018-10-19T18:48:16.495Z,13.00
2018-10-19T18:50:44.683Z,13.00
2018-10-19T18:53:12.887Z,12.90
2018-10-19T18:55:40.923Z,12.90
2018-10-19T18:58:09.037Z,12.90
2018-10-19T19:00:37.165Z,12.90
2018-10-19T19:03:05.735Z,12.90
2018-10-19T19:05:33.860Z,12.90
2018-10-19T19:08:02.022Z,12.80
2018-10-19T19:10:30.196Z,12.80
2018-10-19T19:13:03.716Z,12.80
2018-10-19T19:15:31.850Z,12.70
2018-10-19T19:17:59.959Z,12.60
2018-10-19T19:20:29.399Z,12.60
2018-10-19T19:22:57.549Z,12.50
2018-10-19T19:25:31.060Z,12.50
2018-10-19T19:27:59.230Z,12.40
2018-10-19T19:30:27.383Z,12.40
2018-10-19T19:33:00.812Z,12.30
2018-10-19T19:35:28.929Z,12.30
2018-10-19T19:37:57.068Z,12.30
2018-10-19T19:40:25.152Z,12.30
2018-10-19T19:42:54.977Z,12.30
2018-10-19T19:45:23.078Z,12.20
2018-10-19T19:47:56.588Z,12.20
2018-10-19T19:50:25.739Z,12.20
2018-10-19T19:52:53.865Z,12.20
2018-10-19T19:55:21.939Z,12.10
2018-10-19T19:57:50.048Z,12.10
2018-10-19T20:00:18.142Z,12.00
2018-10-19T20:02:46.256Z,11.90
2018-10-19T20:05:14.379Z,11.80
2018-10-19T20:07:42.468Z,11.80
2018-10-19T20:10:10.606Z,11.70
2018-10-19T20:12:38.709Z,11.60
2018-10-19T20:15:07.543Z,11.50
2018-10-19T20:17:35.667Z,11.50
2018-10-19T20:20:03.812Z,11.40
2018-10-19T20:22:31.992Z,11.40
2018-10-19T20:25:00.102Z,11.40
2018-10-19T20:27:28.235Z,11.30
2018-10-19T20:29:56.364Z,11.30
2018-10-19T20:32:24.605Z,11.30
2018-10-19T20:34:52.676Z,11.30
2018-10-19T20:37:20.835Z,11.30
2018-10-19T20:39:48.920Z,11.30
2018-10-19T20:42:17.019Z,11.30
2018-10-19T20:44:45.116Z,11.20
2018-10-19T20:47:13.384Z,11.20
2018-10-19T20:49:41.422Z,11.10
2018-10-19T20:52:09.546Z,11.00
2018-10-19T20:54:37.651Z,11.00
2018-10-19T20:57:05.735Z,11.00
2018-10-19T20:59:33.838Z,10.90
2018-10-19T21:02:01.962Z,10.90
2018-10-19T21:04:30.079Z,10.90
2018-10-19T21:06:58.171Z,10.90
2018-10-19T21:09:26.278Z,10.80
2018-10-19T21:11:54.364Z,10.70
2018-10-19T21:14:22.439Z,10.70
2018-10-19T21:16:50.534Z,10.60
2018-10-19T21:19:18.731Z,10.60
2018-10-19T21:21:46.735Z,10.70
2018-10-19T21:24:14.834Z,10.80
2018-10-19T21:26:42.991Z,10.70
2018-10-19T21:29:11.209Z,10.70
2018-10-19T21:31:39.334Z,10.70
2018-10-19T21:34:07.430Z,10.70
2018-10-19T21:36:35.541Z,10.70
2018-10-19T21:39:04.540Z,10.50
2018-10-19T21:41:32.623Z,10.50
2018-10-19T21:44:00.747Z,10.40
2018-10-19T21:46:28.797Z,10.40
2018-10-19T21:48:57.579Z,10.40
2018-10-19T21:51:25.663Z,10.40
2018-10-19T21:53:53.750Z,10.30
2018-10-19T21:56:21.840Z,10.30
2018-10-19T21:58:49.963Z,10.30
2018-10-19T22:01:18.068Z,10.40
2018-10-19T22:03:46.155Z,10.40
2018-10-19T22:06:14.260Z,10.30
2018-10-19T22:08:42.493Z,10.20
2018-10-19T22:11:10.624Z,10.20
2018-10-19T22:13:38.643Z,10.20
2018-10-19T22:16:07.356Z,10.10
2018-10-19T22:18:35.510Z,10.00
2018-10-19T22:21:03.663Z,9.90
2018-10-19T22:23:31.911Z,9.80
2018-10-19T22:25:59.972Z,9.70
2018-10-19T22:28:28.048Z,9.70
2018-10-19T22:30:56.175Z,9.70
2018-10-19T22:33:24.248Z,9.60
2018-10-19T22:35:52.354Z,9.60
2018-10-19T22:38:20.438Z,9.50
2018-10-19T22:40:48.536Z,9.50
2018-10-19T22:43:16.724Z,9.50
2018-10-19T22:45:44.735Z,9.50
2018-10-19T22:48:12.811Z,9.50
2018-10-19T22:50:41.168Z,9.40
2018-10-19T22:53:10.839Z,9.40
2018-10-19T22:55:38.886Z,9.40
2018-10-19T22:58:06.989Z,9.50
2018-10-19T23:00:35.104Z,9.50
2018-10-19T23:03:03.207Z,9.30
2018-10-19T23:05:31.332Z,9.40
2018-10-19T23:07:59.451Z,9.40
2018-10-19T23:10:27.564Z,9.20
2018-10-19T23:12:55.705Z,9.10
2018-10-19T23:15:23.751Z,9.10
2018-10-19T23:17:51.853Z,9.00
2018-10-19T23:20:19.964Z,9.10
2018-10-19T23:22:48.055Z,9.10
2018-10-19T23:25:16.252Z,9.10
2018-10-19T23:27:44.280Z,9.20
2018-10-19T23:30:12.389Z,9.20
2018-10-19T23:32:40.555Z,9.30
2018-10-19T23:35:09.026Z,9.30
2018-10-19T23:37:37.092Z,9.30
2018-10-19T23:40:06.099Z,9.20
2018-10-19T23:42:34.222Z,9.30
2018-10-19T23:45:02.322Z,9.10
2018-10-19T23:47:30.432Z,9.20
2018-10-19T23:49:58.597Z,9.10
2018-10-19T23:52:26.713Z,9.00
2018-10-19T23:54:54.814Z,9.00
2018-10-19T23:57:22.911Z,9.00
2018-10-19T23:59:51.008Z,9.00
